sensor_id;sensor_type;location;lat;lon;timestamp;temperature;humidity
52615;DHT22;38508;53.158;6.614;2023-02-19T00:01:11;10.00;99.90
52615;DHT22;38508;53.158;6.614;2023-02-19T00:03:38;10.00;99.90
52615;DHT22;38508;53.158;6.614;2023-02-19T00:06:05;10.10;99.90
52615;DHT22;38508;53.158;6.614;2023-02-19T00:08:32;10.10;99.90
52615;DHT22;38508;53.158;6.614;2023-02-19T00:11:22;10.10;99.90
52615;DHT22;38508;53.158;6.614;2023-02-19T00:13:50;10.00;99.90
52615;DHT22;38508;53.158;6.614;2023-02-19T00:16:18;9.90;99.90
52615;DHT22;38508;53.158;6.614;2023-02-19T00:18:44;9.90;99.90
52615;DHT22;38508;53.158;6.614;2023-02-19T00:21:10;10.00;99.90
52615;DHT22;38508;53.158;6.614;2023-02-19T00:23:36;10.00;99.90
52615;DHT22;38508;53.158;6.614;2023-02-19T00:26:07;9.90;99.90
52615;DHT22;38508;53.158;6.614;2023-02-19T00:28:34;9.90;99.90
52615;DHT22;38508;53.158;6.614;2023-02-19T00:31:24;10.00;99.90
52615;DHT22;38508;53.158;6.614;2023-02-19T00:33:52;9.90;99.90
52615;DHT22;38508;53.158;6.614;2023-02-19T00:36:18;9.90;99.90
52615;DHT22;38508;53.158;6.614;2023-02-19T00:38:44;9.90;99.90
52615;DHT22;38508;53.158;6.614;2023-02-19T00:41:12;9.90;99.90
52615;DHT22;38508;53.158;6.614;2023-02-19T00:43:58;9.90;99.90
52615;DHT22;38508;53.158;6.614;2023-02-19T00:48:54;10.00;99.90
52615;DHT22;38508;53.158;6.614;2023-02-19T00:51:22;10.00;99.90
52615;DHT22;38508;53.158;6.614;2023-02-19T00:53:48;10.00;99.90
52615;DHT22;38508;53.158;6.614;2023-02-19T00:56:15;10.00;99.90
52615;DHT22;38508;53.158;6.614;2023-02-19T00:58:41;10.00;99.90
52615;DHT22;38508;53.158;6.614;2023-02-19T01:01:08;9.90;99.90
52615;DHT22;38508;53.158;6.614;2023-02-19T01:03:34;10.00;99.90
52615;DHT22;38508;53.158;6.614;2023-02-19T01:06:00;9.90;99.90
52615;DHT22;38508;53.158;6.614;2023-02-19T01:08:27;9.90;99.90
52615;DHT22;38508;53.158;6.614;2023-02-19T01:10:53;9.90;99.90
52615;DHT22;38508;53.158;6.614;2023-02-19T01:13:19;9.90;99.90
52615;DHT22;38508;53.158;6.614;2023-02-19T01:15:45;9.90;99.90
52615;DHT22;38508;53.158;6.614;2023-02-19T01:18:11;9.90;99.90
52615;DHT22;38508;53.158;6.614;2023-02-19T01:20:41;10.00;99.90
52615;DHT22;38508;53.158;6.614;2023-02-19T01:23:09;10.00;99.90
52615;DHT22;38508;53.158;6.614;2023-02-19T01:25:40;9.90;99.90
52615;DHT22;38508;53.158;6.614;2023-02-19T01:28:07;10.00;99.90
52615;DHT22;38508;53.158;6.614;2023-02-19T01:30:37;10.00;99.90
52615;DHT22;38508;53.158;6.614;2023-02-19T01:33:07;9.80;99.90
52615;DHT22;38508;53.158;6.614;2023-02-19T01:35:33;9.90;99.90
52615;DHT22;38508;53.158;6.614;2023-02-19T01:37:59;9.90;99.90
52615;DHT22;38508;53.158;6.614;2023-02-19T01:40:25;9.90;99.90
52615;DHT22;38508;53.158;6.614;2023-02-19T01:42:51;9.90;99.90
52615;DHT22;38508;53.158;6.614;2023-02-19T01:47:47;9.90;99.90
52615;DHT22;38508;53.158;6.614;2023-02-19T01:50:15;10.00;99.90
52615;DHT22;38508;53.158;6.614;2023-02-19T01:52:41;10.00;99.90
52615;DHT22;38508;53.158;6.614;2023-02-19T01:55:09;10.00;99.90
52615;DHT22;38508;53.158;6.614;2023-02-19T01:57:39;9.70;99.90
52615;DHT22;38508;53.158;6.614;2023-02-19T02:00:11;9.50;99.90
52615;DHT22;38508;53.158;6.614;2023-02-19T02:02:41;9.70;99.90
52615;DHT22;38508;53.158;6.614;2023-02-19T02:05:18;9.60;99.90
52615;DHT22;38508;53.158;6.614;2023-02-19T02:07:46;9.50;99.90
52615;DHT22;38508;53.158;6.614;2023-02-19T02:10:30;9.60;99.90
52615;DHT22;38508;53.158;6.614;2023-02-19T02:12:57;9.70;99.90
52615;DHT22;38508;53.158;6.614;2023-02-19T02:15:28;9.60;99.90
52615;DHT22;38508;53.158;6.614;2023-02-19T02:18:01;9.60;99.90
52615;DHT22;38508;53.158;6.614;2023-02-19T02:20:52;9.40;99.90
52615;DHT22;38508;53.158;6.614;2023-02-19T02:26:15;9.20;99.90
52615;DHT22;38508;53.158;6.614;2023-02-19T02:32:11;9.20;99.90
52615;DHT22;38508;53.158;6.614;2023-02-19T02:35:05;9.00;99.90
52615;DHT22;38508;53.158;6.614;2023-02-19T02:37:34;9.10;99.90
52615;DHT22;38508;53.158;6.614;2023-02-19T02:40:02;9.10;99.90
52615;DHT22;38508;53.158;6.614;2023-02-19T02:42:29;9.20;99.90
52615;DHT22;38508;53.158;6.614;2023-02-19T02:44:56;9.20;99.90
52615;DHT22;38508;53.158;6.614;2023-02-19T02:47:51;9.30;99.90
52615;DHT22;38508;53.158;6.614;2023-02-19T02:50:23;9.50;99.90
52615;DHT22;38508;53.158;6.614;2023-02-19T02:52:54;9.40;99.90
52615;DHT22;38508;53.158;6.614;2023-02-19T02:55:42;9.50;99.90
52615;DHT22;38508;53.158;6.614;2023-02-19T02:58:09;9.50;99.90
52615;DHT22;38508;53.158;6.614;2023-02-19T03:00:36;9.50;99.90
52615;DHT22;38508;53.158;6.614;2023-02-19T03:03:23;9.60;99.90
52615;DHT22;38508;53.158;6.614;2023-02-19T03:05:52;9.50;99.90
52615;DHT22;38508;53.158;6.614;2023-02-19T03:08:28;9.50;99.90
52615;DHT22;38508;53.158;6.614;2023-02-19T03:11:03;9.40;99.90
52615;DHT22;38508;53.158;6.614;2023-02-19T03:13:51;9.40;99.90
52615;DHT22;38508;53.158;6.614;2023-02-19T03:16:55;9.50;99.90
52615;DHT22;38508;53.158;6.614;2023-02-19T03:19:43;9.50;99.90
52615;DHT22;38508;53.158;6.614;2023-02-19T03:22:23;9.30;99.90
52615;DHT22;38508;53.158;6.614;2023-02-19T03:25:26;9.30;99.90
52615;DHT22;38508;53.158;6.614;2023-02-19T03:28:05;9.20;99.90
52615;DHT22;38508;53.158;6.614;2023-02-19T03:30:35;9.30;99.90
52615;DHT22;38508;53.158;6.614;2023-02-19T03:33:10;9.20;99.90
52615;DHT22;38508;53.158;6.614;2023-02-19T03:35:50;9.30;99.90
52615;DHT22;38508;53.158;6.614;2023-02-19T03:38:23;9.20;99.90
52615;DHT22;38508;53.158;6.614;2023-02-19T03:41:00;9.30;99.90
52615;DHT22;38508;53.158;6.614;2023-02-19T03:43:49;9.40;99.90
52615;DHT22;38508;53.158;6.614;2023-02-19T03:46:44;9.40;99.90
52615;DHT22;38508;53.158;6.614;2023-02-19T03:49:30;9.30;99.90
52615;DHT22;38508;53.158;6.614;2023-02-19T03:52:07;9.20;99.90
52615;DHT22;38508;53.158;6.614;2023-02-19T03:57:35;8.90;99.90
52615;DHT22;38508;53.158;6.614;2023-02-19T04:00:16;8.80;99.90
52615;DHT22;38508;53.158;6.614;2023-02-19T04:03:12;8.90;99.90
52615;DHT22;38508;53.158;6.614;2023-02-19T04:05:40;9.00;99.90
52615;DHT22;38508;53.158;6.614;2023-02-19T04:08:13;9.10;99.90
52615;DHT22;38508;53.158;6.614;2023-02-19T04:10:40;9.10;99.90
52615;DHT22;38508;53.158;6.614;2023-02-19T04:13:15;9.00;99.90
52615;DHT22;38508;53.158;6.614;2023-02-19T04:15:43;9.20;99.90
52615;DHT22;38508;53.158;6.614;2023-02-19T04:18:14;9.10;99.90
52615;DHT22;38508;53.158;6.614;2023-02-19T04:20:43;9.20;99.90
52615;DHT22;38508;53.158;6.614;2023-02-19T04:23:10;9.20;99.90
52615;DHT22;38508;53.158;6.614;2023-02-19T04:25:37;9.20;99.90
52615;DHT22;38508;53.158;6.614;2023-02-19T04:28:07;9.20;99.90
52615;DHT22;38508;53.158;6.614;2023-02-19T04:30:33;9.10;99.90
52615;DHT22;38508;53.158;6.614;2023-02-19T04:32:59;9.00;99.90
52615;DHT22;38508;53.158;6.614;2023-02-19T04:35:24;9.10;99.90
52615;DHT22;38508;53.158;6.614;2023-02-19T04:37:50;9.10;99.90
52615;DHT22;38508;53.158;6.614;2023-02-19T04:40:16;9.10;99.90
52615;DHT22;38508;53.158;6.614;2023-02-19T04:42:42;9.10;99.90
52615;DHT22;38508;53.158;6.614;2023-02-19T04:45:07;8.90;99.90
52615;DHT22;38508;53.158;6.614;2023-02-19T04:47:33;8.90;99.90
52615;DHT22;38508;53.158;6.614;2023-02-19T04:49:59;8.90;99.90
52615;DHT22;38508;53.158;6.614;2023-02-19T04:52:26;9.00;99.90
52615;DHT22;38508;53.158;6.614;2023-02-19T04:54:51;9.00;99.90
52615;DHT22;38508;53.158;6.614;2023-02-19T04:57:17;9.00;99.90
52615;DHT22;38508;53.158;6.614;2023-02-19T04:59:43;8.90;99.90
52615;DHT22;38508;53.158;6.614;2023-02-19T05:02:08;8.90;99.90
52615;DHT22;38508;53.158;6.614;2023-02-19T05:04:34;8.90;99.90
52615;DHT22;38508;53.158;6.614;2023-02-19T05:07:00;8.90;99.90
52615;DHT22;38508;53.158;6.614;2023-02-19T05:09:25;8.80;99.90
52615;DHT22;38508;53.158;6.614;2023-02-19T05:11:51;8.70;99.90
52615;DHT22;38508;53.158;6.614;2023-02-19T05:14:17;8.80;99.90
52615;DHT22;38508;53.158;6.614;2023-02-19T05:16:42;8.80;99.90
52615;DHT22;38508;53.158;6.614;2023-02-19T05:19:10;8.90;99.90
52615;DHT22;38508;53.158;6.614;2023-02-19T05:21:36;8.80;99.90
52615;DHT22;38508;53.158;6.614;2023-02-19T05:24:04;9.00;99.90
52615;DHT22;38508;53.158;6.614;2023-02-19T05:26:29;9.10;99.90
52615;DHT22;38508;53.158;6.614;2023-02-19T05:28:56;8.90;99.90
52615;DHT22;38508;53.158;6.614;2023-02-19T05:31:22;8.90;99.90
52615;DHT22;38508;53.158;6.614;2023-02-19T05:33:48;8.90;99.90
52615;DHT22;38508;53.158;6.614;2023-02-19T05:36:16;8.90;99.90
52615;DHT22;38508;53.158;6.614;2023-02-19T05:38:42;8.90;99.90
52615;DHT22;38508;53.158;6.614;2023-02-19T05:41:18;8.90;99.90
52615;DHT22;38508;53.158;6.614;2023-02-19T05:43:46;9.00;99.90
52615;DHT22;38508;53.158;6.614;2023-02-19T05:46:14;8.90;99.90
52615;DHT22;38508;53.158;6.614;2023-02-19T05:48:40;8.90;99.90
52615;DHT22;38508;53.158;6.614;2023-02-19T05:51:11;8.90;99.90
52615;DHT22;38508;53.158;6.614;2023-02-19T05:53:38;8.90;99.90
52615;DHT22;38508;53.158;6.614;2023-02-19T05:56:05;8.90;99.90
52615;DHT22;38508;53.158;6.614;2023-02-19T05:58:44;8.90;99.90
52615;DHT22;38508;53.158;6.614;2023-02-19T06:01:16;8.90;99.90
52615;DHT22;38508;53.158;6.614;2023-02-19T06:03:42;8.90;99.90
52615;DHT22;38508;53.158;6.614;2023-02-19T06:06:15;8.90;99.90
52615;DHT22;38508;53.158;6.614;2023-02-19T06:08:41;8.90;99.90
52615;DHT22;38508;53.158;6.614;2023-02-19T06:11:07;8.90;99.90
52615;DHT22;38508;53.158;6.614;2023-02-19T06:13:33;8.80;99.90
52615;DHT22;38508;53.158;6.614;2023-02-19T06:16:02;8.80;99.90
52615;DHT22;38508;53.158;6.614;2023-02-19T06:18:27;8.80;99.90
52615;DHT22;38508;53.158;6.614;2023-02-19T06:20:53;8.80;99.90
52615;DHT22;38508;53.158;6.614;2023-02-19T06:23:19;8.90;99.90
52615;DHT22;38508;53.158;6.614;2023-02-19T06:25:44;8.90;99.90
52615;DHT22;38508;53.158;6.614;2023-02-19T06:28:10;8.90;99.90
52615;DHT22;38508;53.158;6.614;2023-02-19T06:30:36;8.90;99.90
52615;DHT22;38508;53.158;6.614;2023-02-19T06:33:01;8.80;99.90
52615;DHT22;38508;53.158;6.614;2023-02-19T06:35:27;8.70;99.90
52615;DHT22;38508;53.158;6.614;2023-02-19T06:37:53;8.50;99.90
52615;DHT22;38508;53.158;6.614;2023-02-19T06:40:18;8.50;99.90
52615;DHT22;38508;53.158;6.614;2023-02-19T06:42:44;8.50;99.90
52615;DHT22;38508;53.158;6.614;2023-02-19T06:45:10;8.40;99.90
52615;DHT22;38508;53.158;6.614;2023-02-19T06:47:36;8.40;99.90
52615;DHT22;38508;53.158;6.614;2023-02-19T06:50:02;8.40;99.90
52615;DHT22;38508;53.158;6.614;2023-02-19T06:52:27;8.50;99.90
52615;DHT22;38508;53.158;6.614;2023-02-19T06:54:53;8.60;99.90
52615;DHT22;38508;53.158;6.614;2023-02-19T06:57:19;8.50;99.90
52615;DHT22;38508;53.158;6.614;2023-02-19T06:59:45;8.40;99.90
52615;DHT22;38508;53.158;6.614;2023-02-19T07:02:11;8.40;99.90
52615;DHT22;38508;53.158;6.614;2023-02-19T07:04:37;8.50;99.90
52615;DHT22;38508;53.158;6.614;2023-02-19T07:07:03;8.50;99.90
52615;DHT22;38508;53.158;6.614;2023-02-19T07:09:29;8.60;99.90
52615;DHT22;38508;53.158;6.614;2023-02-19T07:11:55;8.50;99.90
52615;DHT22;38508;53.158;6.614;2023-02-19T07:14:21;8.60;99.90
52615;DHT22;38508;53.158;6.614;2023-02-19T07:16:49;8.60;99.90
52615;DHT22;38508;53.158;6.614;2023-02-19T07:19:15;8.60;99.90
52615;DHT22;38508;53.158;6.614;2023-02-19T07:21:41;8.60;99.90
52615;DHT22;38508;53.158;6.614;2023-02-19T07:24:08;8.60;99.90
52615;DHT22;38508;53.158;6.614;2023-02-19T07:26:34;8.70;99.90
52615;DHT22;38508;53.158;6.614;2023-02-19T07:29:00;8.70;99.90
52615;DHT22;38508;53.158;6.614;2023-02-19T07:31:27;8.70;99.90
52615;DHT22;38508;53.158;6.614;2023-02-19T07:33:53;8.60;99.90
52615;DHT22;38508;53.158;6.614;2023-02-19T07:36:21;8.70;99.90
52615;DHT22;38508;53.158;6.614;2023-02-19T07:38:51;8.70;99.90
52615;DHT22;38508;53.158;6.614;2023-02-19T07:41:19;8.70;99.90
52615;DHT22;38508;53.158;6.614;2023-02-19T07:43:45;8.70;99.90
52615;DHT22;38508;53.158;6.614;2023-02-19T07:46:12;8.80;99.90
52615;DHT22;38508;53.158;6.614;2023-02-19T07:48:39;8.80;99.90
52615;DHT22;38508;53.158;6.614;2023-02-19T07:51:07;8.80;99.90
52615;DHT22;38508;53.158;6.614;2023-02-19T07:53:34;8.80;99.90
52615;DHT22;38508;53.158;6.614;2023-02-19T07:56:04;8.80;99.90
52615;DHT22;38508;53.158;6.614;2023-02-19T07:58:31;8.70;99.90
52615;DHT22;38508;53.158;6.614;2023-02-19T08:01:09;8.70;99.90
52615;DHT22;38508;53.158;6.614;2023-02-19T08:03:36;8.60;99.90
52615;DHT22;38508;53.158;6.614;2023-02-19T08:06:02;8.60;99.90
52615;DHT22;38508;53.158;6.614;2023-02-19T08:08:28;8.60;99.90
52615;DHT22;38508;53.158;6.614;2023-02-19T08:10:54;8.60;99.90
52615;DHT22;38508;53.158;6.614;2023-02-19T08:13:38;8.70;99.90
52615;DHT22;38508;53.158;6.614;2023-02-19T08:18:31;8.80;99.90
52615;DHT22;38508;53.158;6.614;2023-02-19T08:20:58;8.70;99.90
52615;DHT22;38508;53.158;6.614;2023-02-19T08:23:25;8.70;99.90
52615;DHT22;38508;53.158;6.614;2023-02-19T08:25:52;8.70;99.90
52615;DHT22;38508;53.158;6.614;2023-02-19T08:28:18;8.70;99.90
52615;DHT22;38508;53.158;6.614;2023-02-19T08:30:45;8.90;99.90
52615;DHT22;38508;53.158;6.614;2023-02-19T08:33:17;9.20;99.90
52615;DHT22;38508;53.158;6.614;2023-02-19T08:35:43;9.00;99.90
52615;DHT22;38508;53.158;6.614;2023-02-19T08:38:11;8.90;99.90
52615;DHT22;38508;53.158;6.614;2023-02-19T08:40:37;8.90;99.90
52615;DHT22;38508;53.158;6.614;2023-02-19T08:43:06;8.90;99.90
52615;DHT22;38508;53.158;6.614;2023-02-19T08:45:32;8.90;99.90
52615;DHT22;38508;53.158;6.614;2023-02-19T08:47:58;8.90;99.90
52615;DHT22;38508;53.158;6.614;2023-02-19T08:50:24;8.90;99.90
52615;DHT22;38508;53.158;6.614;2023-02-19T08:52:50;9.20;99.90
52615;DHT22;38508;53.158;6.614;2023-02-19T08:55:16;9.10;99.90
52615;DHT22;38508;53.158;6.614;2023-02-19T08:57:42;8.90;99.90
52615;DHT22;38508;53.158;6.614;2023-02-19T09:00:08;8.90;99.90
52615;DHT22;38508;53.158;6.614;2023-02-19T09:02:35;9.10;99.90
52615;DHT22;38508;53.158;6.614;2023-02-19T09:05:00;9.00;99.90
52615;DHT22;38508;53.158;6.614;2023-02-19T09:07:26;9.00;99.90
52615;DHT22;38508;53.158;6.614;2023-02-19T09:09:53;9.10;99.90
52615;DHT22;38508;53.158;6.614;2023-02-19T09:12:19;9.10;99.90
52615;DHT22;38508;53.158;6.614;2023-02-19T09:14:45;9.10;99.90
52615;DHT22;38508;53.158;6.614;2023-02-19T09:17:11;9.40;99.90
52615;DHT22;38508;53.158;6.614;2023-02-19T09:19:37;9.50;99.90
52615;DHT22;38508;53.158;6.614;2023-02-19T09:22:04;9.50;99.90
52615;DHT22;38508;53.158;6.614;2023-02-19T09:24:31;9.50;99.90
52615;DHT22;38508;53.158;6.614;2023-02-19T09:26:57;9.50;99.90
52615;DHT22;38508;53.158;6.614;2023-02-19T09:29:27;9.30;99.90
52615;DHT22;38508;53.158;6.614;2023-02-19T09:31:59;9.10;99.90
52615;DHT22;38508;53.158;6.614;2023-02-19T09:34:27;9.20;99.90
52615;DHT22;38508;53.158;6.614;2023-02-19T09:36:53;9.20;99.90
52615;DHT22;38508;53.158;6.614;2023-02-19T09:39:19;9.10;99.90
52615;DHT22;38508;53.158;6.614;2023-02-19T09:44:39;9.20;99.90
52615;DHT22;38508;53.158;6.614;2023-02-19T09:47:12;9.20;99.90
52615;DHT22;38508;53.158;6.614;2023-02-19T09:49:41;9.30;99.90
52615;DHT22;38508;53.158;6.614;2023-02-19T09:52:41;9.30;99.90
52615;DHT22;38508;53.158;6.614;2023-02-19T09:55:32;9.50;99.90
52615;DHT22;38508;53.158;6.614;2023-02-19T09:58:01;9.60;99.90
52615;DHT22;38508;53.158;6.614;2023-02-19T10:00:32;9.70;99.90
52615;DHT22;38508;53.158;6.614;2023-02-19T10:03:11;10.00;99.90
52615;DHT22;38508;53.158;6.614;2023-02-19T10:05:39;9.90;99.90
52615;DHT22;38508;53.158;6.614;2023-02-19T10:08:08;9.80;99.90
52615;DHT22;38508;53.158;6.614;2023-02-19T10:10:37;9.70;99.90
52615;DHT22;38508;53.158;6.614;2023-02-19T10:13:14;9.40;99.90
52615;DHT22;38508;53.158;6.614;2023-02-19T10:15:47;9.50;99.90
52615;DHT22;38508;53.158;6.614;2023-02-19T10:18:26;9.40;99.90
52615;DHT22;38508;53.158;6.614;2023-02-19T10:20:53;9.40;99.90
52615;DHT22;38508;53.158;6.614;2023-02-19T10:23:20;9.60;99.90
52615;DHT22;38508;53.158;6.614;2023-02-19T10:25:55;9.70;99.90
52615;DHT22;38508;53.158;6.614;2023-02-19T10:28:30;10.00;99.90
52615;DHT22;38508;53.158;6.614;2023-02-19T10:30:59;10.20;99.90
52615;DHT22;38508;53.158;6.614;2023-02-19T10:33:27;10.40;99.90
52615;DHT22;38508;53.158;6.614;2023-02-19T10:36:02;10.10;99.90
52615;DHT22;38508;53.158;6.614;2023-02-19T10:38:38;9.90;99.90
52615;DHT22;38508;53.158;6.614;2023-02-19T10:41:14;9.90;99.90
52615;DHT22;38508;53.158;6.614;2023-02-19T10:43:54;10.30;99.90
52615;DHT22;38508;53.158;6.614;2023-02-19T10:46:27;10.40;99.90
52615;DHT22;38508;53.158;6.614;2023-02-19T10:48:56;10.80;99.90
52615;DHT22;38508;53.158;6.614;2023-02-19T10:51:49;11.10;99.90
52615;DHT22;38508;53.158;6.614;2023-02-19T10:54:24;11.60;99.90
52615;DHT22;38508;53.158;6.614;2023-02-19T10:56:50;11.60;99.90
52615;DHT22;38508;53.158;6.614;2023-02-19T10:59:26;11.50;99.90
52615;DHT22;38508;53.158;6.614;2023-02-19T11:02:00;11.40;99.90
52615;DHT22;38508;53.158;6.614;2023-02-19T11:04:30;11.20;99.90
52615;DHT22;38508;53.158;6.614;2023-02-19T11:07:12;10.90;99.90
52615;DHT22;38508;53.158;6.614;2023-02-19T11:09:40;10.60;99.90
52615;DHT22;38508;53.158;6.614;2023-02-19T11:12:07;10.40;99.90
52615;DHT22;38508;53.158;6.614;2023-02-19T11:14:34;10.30;99.90
52615;DHT22;38508;53.158;6.614;2023-02-19T11:17:02;10.20;99.90
52615;DHT22;38508;53.158;6.614;2023-02-19T11:19:39;10.20;99.90
52615;DHT22;38508;53.158;6.614;2023-02-19T11:24:51;10.60;99.90
52615;DHT22;38508;53.158;6.614;2023-02-19T11:27:20;10.50;99.90
52615;DHT22;38508;53.158;6.614;2023-02-19T11:29:46;10.60;99.90
52615;DHT22;38508;53.158;6.614;2023-02-19T11:32:28;10.90;99.90
52615;DHT22;38508;53.158;6.614;2023-02-19T11:35:26;11.10;99.90
52615;DHT22;38508;53.158;6.614;2023-02-19T11:37:57;11.30;99.90
52615;DHT22;38508;53.158;6.614;2023-02-19T11:40:59;11.40;99.90
52615;DHT22;38508;53.158;6.614;2023-02-19T11:52:27;11.30;99.90
52615;DHT22;38508;53.158;6.614;2023-02-19T11:55:48;11.50;99.90
52615;DHT22;38508;53.158;6.614;2023-02-19T12:01:02;10.90;99.90
52615;DHT22;38508;53.158;6.614;2023-02-19T12:03:53;11.10;99.90
52615;DHT22;38508;53.158;6.614;2023-02-19T12:06:30;11.60;99.90
52615;DHT22;38508;53.158;6.614;2023-02-19T12:09:11;11.90;99.90
52615;DHT22;38508;53.158;6.614;2023-02-19T12:20:42;12.70;99.90
52615;DHT22;38508;53.158;6.614;2023-02-19T12:26:22;12.80;99.90
52615;DHT22;38508;53.158;6.614;2023-02-19T12:29:28;13.00;99.90
52615;DHT22;38508;53.158;6.614;2023-02-19T12:32:07;12.70;99.90
52615;DHT22;38508;53.158;6.614;2023-02-19T12:43:21;11.50;99.90
52615;DHT22;38508;53.158;6.614;2023-02-19T12:48:52;11.40;99.90
52615;DHT22;38508;53.158;6.614;2023-02-19T12:51:26;11.30;99.90
52615;DHT22;38508;53.158;6.614;2023-02-19T12:53:57;11.30;99.90
52615;DHT22;38508;53.158;6.614;2023-02-19T12:56:29;11.40;99.90
52615;DHT22;38508;53.158;6.614;2023-02-19T13:07:38;11.70;99.90
52615;DHT22;38508;53.158;6.614;2023-02-19T13:10:28;11.70;99.90
52615;DHT22;38508;53.158;6.614;2023-02-19T13:12:58;11.40;99.90
52615;DHT22;38508;53.158;6.614;2023-02-19T13:15:46;11.00;99.90
52615;DHT22;38508;53.158;6.614;2023-02-19T13:18:47;10.90;99.90
52615;DHT22;38508;53.158;6.614;2023-02-19T13:21:15;10.90;99.90
52615;DHT22;38508;53.158;6.614;2023-02-19T13:24:06;10.70;99.90
52615;DHT22;38508;53.158;6.614;2023-02-19T13:35:24;10.90;99.90
52615;DHT22;38508;53.158;6.614;2023-02-19T13:37:53;11.00;99.90
52615;DHT22;38508;53.158;6.614;2023-02-19T13:40:31;11.20;99.90
52615;DHT22;38508;53.158;6.614;2023-02-19T13:42:59;11.50;99.90
52615;DHT22;38508;53.158;6.614;2023-02-19T13:45:43;11.60;99.90
52615;DHT22;38508;53.158;6.614;2023-02-19T13:48:40;11.40;99.90
52615;DHT22;38508;53.158;6.614;2023-02-19T14:04:37;10.30;99.90
52615;DHT22;38508;53.158;6.614;2023-02-19T14:14:55;10.60;99.90
52615;DHT22;38508;53.158;6.614;2023-02-19T14:17:42;10.80;99.90
52615;DHT22;38508;53.158;6.614;2023-02-19T14:33:38;10.70;99.90
52615;DHT22;38508;53.158;6.614;2023-02-19T14:39:11;10.70;99.90
52615;DHT22;38508;53.158;6.614;2023-02-19T14:41:43;10.60;99.90
52615;DHT22;38508;53.158;6.614;2023-02-19T14:44:19;10.50;99.90
52615;DHT22;38508;53.158;6.614;2023-02-19T14:46:56;10.30;99.90
52615;DHT22;38508;53.158;6.614;2023-02-19T14:54:56;10.30;99.90
52615;DHT22;38508;53.158;6.614;2023-02-19T14:57:28;10.30;99.90
52615;DHT22;38508;53.158;6.614;2023-02-19T14:59:58;10.20;99.90
52615;DHT22;38508;53.158;6.614;2023-02-19T15:02:26;10.10;99.90
52615;DHT22;38508;53.158;6.614;2023-02-19T15:04:52;10.10;99.90
52615;DHT22;38508;53.158;6.614;2023-02-19T15:07:27;10.30;99.90
52615;DHT22;38508;53.158;6.614;2023-02-19T15:09:57;10.20;99.90
52615;DHT22;38508;53.158;6.614;2023-02-19T15:12:32;10.10;99.90
52615;DHT22;38508;53.158;6.614;2023-02-19T15:15:02;10.20;99.90
52615;DHT22;38508;53.158;6.614;2023-02-19T15:17:31;10.30;99.90
52615;DHT22;38508;53.158;6.614;2023-02-19T15:20:02;10.20;99.90
52615;DHT22;38508;53.158;6.614;2023-02-19T15:22:30;10.10;99.90
52615;DHT22;38508;53.158;6.614;2023-02-19T15:25:02;10.10;99.90
52615;DHT22;38508;53.158;6.614;2023-02-19T15:27:29;10.00;99.90
52615;DHT22;38508;53.158;6.614;2023-02-19T15:29:55;10.10;99.90
52615;DHT22;38508;53.158;6.614;2023-02-19T15:32:24;10.30;99.90
52615;DHT22;38508;53.158;6.614;2023-02-19T15:34:55;10.30;99.90
52615;DHT22;38508;53.158;6.614;2023-02-19T15:37:23;10.20;99.90
52615;DHT22;38508;53.158;6.614;2023-02-19T15:39:50;10.30;99.90
52615;DHT22;38508;53.158;6.614;2023-02-19T15:42:21;10.20;99.90
52615;DHT22;38508;53.158;6.614;2023-02-19T15:44:54;10.20;99.90
52615;DHT22;38508;53.158;6.614;2023-02-19T15:47:35;10.10;99.90
52615;DHT22;38508;53.158;6.614;2023-02-19T15:50:04;10.30;99.90
52615;DHT22;38508;53.158;6.614;2023-02-19T15:52:39;10.40;99.90
52615;DHT22;38508;53.158;6.614;2023-02-19T15:55:29;10.20;99.90
52615;DHT22;38508;53.158;6.614;2023-02-19T15:58:21;10.20;99.90
52615;DHT22;38508;53.158;6.614;2023-02-19T16:03:22;10.70;99.90
52615;DHT22;38508;53.158;6.614;2023-02-19T16:08:28;10.70;99.90
52615;DHT22;38508;53.158;6.614;2023-02-19T16:10:56;10.50;99.90
52615;DHT22;38508;53.158;6.614;2023-02-19T16:13:25;10.00;99.90
52615;DHT22;38508;53.158;6.614;2023-02-19T16:18:33;9.60;99.90
52615;DHT22;38508;53.158;6.614;2023-02-19T16:21:00;9.40;99.90
52615;DHT22;38508;53.158;6.614;2023-02-19T16:23:27;9.40;99.90
52615;DHT22;38508;53.158;6.614;2023-02-19T16:25:58;9.10;99.90
52615;DHT22;38508;53.158;6.614;2023-02-19T16:28:26;9.30;99.90
52615;DHT22;38508;53.158;6.614;2023-02-19T16:30:58;9.40;99.90
52615;DHT22;38508;53.158;6.614;2023-02-19T16:33:46;9.30;99.90
52615;DHT22;38508;53.158;6.614;2023-02-19T16:41:29;9.30;99.90
52615;DHT22;38508;53.158;6.614;2023-02-19T16:43:55;9.30;99.90
52615;DHT22;38508;53.158;6.614;2023-02-19T16:46:21;9.30;99.90
52615;DHT22;38508;53.158;6.614;2023-02-19T16:48:48;9.20;99.90
52615;DHT22;38508;53.158;6.614;2023-02-19T16:51:20;9.10;99.90
52615;DHT22;38508;53.158;6.614;2023-02-19T16:53:48;9.00;99.90
52615;DHT22;38508;53.158;6.614;2023-02-19T16:56:16;9.10;99.90
52615;DHT22;38508;53.158;6.614;2023-02-19T16:58:43;9.00;99.90
52615;DHT22;38508;53.158;6.614;2023-02-19T17:01:09;8.90;99.90
52615;DHT22;38508;53.158;6.614;2023-02-19T17:03:37;8.60;99.90
52615;DHT22;38508;53.158;6.614;2023-02-19T17:06:03;8.70;99.90
52615;DHT22;38508;53.158;6.614;2023-02-19T17:08:39;8.80;99.90
52615;DHT22;38508;53.158;6.614;2023-02-19T17:11:11;8.80;99.90
52615;DHT22;38508;53.158;6.614;2023-02-19T17:13:38;8.90;99.90
52615;DHT22;38508;53.158;6.614;2023-02-19T17:16:03;8.90;99.90
52615;DHT22;38508;53.158;6.614;2023-02-19T17:18:29;8.90;99.90
52615;DHT22;38508;53.158;6.614;2023-02-19T17:24:03;8.80;99.90
52615;DHT22;38508;53.158;6.614;2023-02-19T17:26:30;8.80;99.90
52615;DHT22;38508;53.158;6.614;2023-02-19T17:28:57;8.70;99.90
52615;DHT22;38508;53.158;6.614;2023-02-19T17:31:23;8.70;99.90
52615;DHT22;38508;53.158;6.614;2023-02-19T17:33:48;8.70;99.90
52615;DHT22;38508;53.158;6.614;2023-02-19T17:36:21;8.60;99.90
52615;DHT22;38508;53.158;6.614;2023-02-19T17:38:47;8.60;99.90
52615;DHT22;38508;53.158;6.614;2023-02-19T17:41:12;8.60;99.90
52615;DHT22;38508;53.158;6.614;2023-02-19T17:43:38;8.50;99.90
52615;DHT22;38508;53.158;6.614;2023-02-19T17:46:04;8.40;99.90
52615;DHT22;38508;53.158;6.614;2023-02-19T17:48:30;8.40;99.90
52615;DHT22;38508;53.158;6.614;2023-02-19T17:50:55;8.30;99.90
52615;DHT22;38508;53.158;6.614;2023-02-19T17:53:21;8.30;99.90
52615;DHT22;38508;53.158;6.614;2023-02-19T17:55:47;8.50;99.90
52615;DHT22;38508;53.158;6.614;2023-02-19T17:58:13;8.90;99.90
52615;DHT22;38508;53.158;6.614;2023-02-19T18:00:39;8.90;99.90
52615;DHT22;38508;53.158;6.614;2023-02-19T18:03:05;8.70;99.90
52615;DHT22;38508;53.158;6.614;2023-02-19T18:05:32;8.60;99.90
52615;DHT22;38508;53.158;6.614;2023-02-19T18:07:58;8.40;99.90
52615;DHT22;38508;53.158;6.614;2023-02-19T18:10:24;8.40;99.90
52615;DHT22;38508;53.158;6.614;2023-02-19T18:12:50;8.30;99.90
52615;DHT22;38508;53.158;6.614;2023-02-19T18:15:21;8.10;99.90
52615;DHT22;38508;53.158;6.614;2023-02-19T18:17:47;8.00;99.90
52615;DHT22;38508;53.158;6.614;2023-02-19T18:20:18;7.90;99.90